sensor_id;sensor_type;location;lat;lon;timestamp;temperature;humidity
43842;DHT22;29495;49.970;20.842;2022-09-30T00:00:32;12.40;99.90
43842;DHT22;29495;49.970;20.842;2022-09-30T00:03:00;12.40;99.90
43842;DHT22;29495;49.970;20.842;2022-09-30T00:05:29;12.40;99.90
43842;DHT22;29495;49.970;20.842;2022-09-30T00:07:58;12.40;99.90
43842;DHT22;29495;49.970;20.842;2022-09-30T00:10:24;12.40;99.90
43842;DHT22;29495;49.970;20.842;2022-09-30T00:12:52;12.50;99.90
43842;DHT22;29495;49.970;20.842;2022-09-30T00:15:19;12.50;99.90
43842;DHT22;29495;49.970;20.842;2022-09-30T00:17:45;12.40;99.90
43842;DHT22;29495;49.970;20.842;2022-09-30T00:20:11;12.30;99.90
43842;DHT22;29495;49.970;20.842;2022-09-30T00:22:47;12.40;99.90
43842;DHT22;29495;49.970;20.842;2022-09-30T00:25:13;12.40;99.90
43842;DHT22;29495;49.970;20.842;2022-09-30T00:27:42;12.40;99.90
43842;DHT22;29495;49.970;20.842;2022-09-30T00:30:08;12.40;99.90
43842;DHT22;29495;49.970;20.842;2022-09-30T00:32:37;12.40;99.90
43842;DHT22;29495;49.970;20.842;2022-09-30T00:35:03;12.40;99.90
43842;DHT22;29495;49.970;20.842;2022-09-30T00:37:31;12.40;99.90
43842;DHT22;29495;49.970;20.842;2022-09-30T00:39:57;12.40;99.90
43842;DHT22;29495;49.970;20.842;2022-09-30T00:42:23;12.50;99.90
43842;DHT22;29495;49.970;20.842;2022-09-30T00:45:02;12.30;99.90
43842;DHT22;29495;49.970;20.842;2022-09-30T00:47:39;12.40;99.90
43842;DHT22;29495;49.970;20.842;2022-09-30T00:50:23;12.30;99.90
43842;DHT22;29495;49.970;20.842;2022-09-30T00:53:04;12.40;99.90
43842;DHT22;29495;49.970;20.842;2022-09-30T00:58:17;12.30;99.90
43842;DHT22;29495;49.970;20.842;2022-09-30T01:00:45;12.30;99.90
43842;DHT22;29495;49.970;20.842;2022-09-30T01:03:13;12.30;99.90
43842;DHT22;29495;49.970;20.842;2022-09-30T01:05:59;12.30;99.90
43842;DHT22;29495;49.970;20.842;2022-09-30T01:08:25;12.50;99.90
43842;DHT22;29495;49.970;20.842;2022-09-30T01:10:52;12.40;99.90
43842;DHT22;29495;49.970;20.842;2022-09-30T01:13:19;12.40;99.90
43842;DHT22;29495;49.970;20.842;2022-09-30T01:18:45;12.40;99.90
43842;DHT22;29495;49.970;20.842;2022-09-30T01:40:24;12.20;99.90
43842;DHT22;29495;49.970;20.842;2022-09-30T01:45:49;12.20;99.90
43842;DHT22;29495;49.970;20.842;2022-09-30T01:51:09;12.10;99.90
43842;DHT22;29495;49.970;20.842;2022-09-30T01:59:01;12.10;99.90
43842;DHT22;29495;49.970;20.842;2022-09-30T02:01:37;12.10;99.90
43842;DHT22;29495;49.970;20.842;2022-09-30T02:04:12;12.20;99.90
43842;DHT22;29495;49.970;20.842;2022-09-30T02:06:44;12.20;99.90
43842;DHT22;29495;49.970;20.842;2022-09-30T02:09:21;12.20;99.90
43842;DHT22;29495;49.970;20.842;2022-09-30T02:11:50;12.20;99.90
43842;DHT22;29495;49.970;20.842;2022-09-30T02:14:39;12.30;99.90
43842;DHT22;29495;49.970;20.842;2022-09-30T02:17:40;12.20;99.90
43842;DHT22;29495;49.970;20.842;2022-09-30T02:25:41;12.30;99.90
43842;DHT22;29495;49.970;20.842;2022-09-30T02:28:14;12.30;99.90
43842;DHT22;29495;49.970;20.842;2022-09-30T02:30:46;12.40;99.90
43842;DHT22;29495;49.970;20.842;2022-09-30T02:33:37;12.30;99.90
43842;DHT22;29495;49.970;20.842;2022-09-30T02:36:11;12.30;99.90
43842;DHT22;29495;49.970;20.842;2022-09-30T02:38:43;12.20;99.90
43842;DHT22;29495;49.970;20.842;2022-09-30T02:41:19;12.20;99.90
43842;DHT22;29495;49.970;20.842;2022-09-30T02:43:49;12.30;99.90
43842;DHT22;29495;49.970;20.842;2022-09-30T02:56:59;12.20;99.90
43842;DHT22;29495;49.970;20.842;2022-09-30T02:59:27;12.20;99.90
43842;DHT22;29495;49.970;20.842;2022-09-30T03:01:53;12.20;99.90
43842;DHT22;29495;49.970;20.842;2022-09-30T03:04:26;12.20;99.90
43842;DHT22;29495;49.970;20.842;2022-09-30T03:06:53;12.30;99.90
43842;DHT22;29495;49.970;20.842;2022-09-30T03:09:24;12.20;99.90
43842;DHT22;29495;49.970;20.842;2022-09-30T03:11:54;12.20;99.90
43842;DHT22;29495;49.970;20.842;2022-09-30T03:17:12;12.20;99.90
43842;DHT22;29495;49.970;20.842;2022-09-30T03:25:55;12.20;99.90
43842;DHT22;29495;49.970;20.842;2022-09-30T03:31:48;12.20;99.90
43842;DHT22;29495;49.970;20.842;2022-09-30T03:37:20;12.20;99.90
43842;DHT22;29495;49.970;20.842;2022-09-30T03:40:47;12.20;99.90
43842;DHT22;29495;49.970;20.842;2022-09-30T03:45:54;12.30;99.90
43842;DHT22;29495;49.970;20.842;2022-09-30T03:48:22;12.40;99.90
43842;DHT22;29495;49.970;20.842;2022-09-30T03:50:49;12.40;99.90
43842;DHT22;29495;49.970;20.842;2022-09-30T03:53:16;12.40;99.90
43842;DHT22;29495;49.970;20.842;2022-09-30T03:55:49;12.40;99.90
43842;DHT22;29495;49.970;20.842;2022-09-30T03:58:17;12.30;99.90
43842;DHT22;29495;49.970;20.842;2022-09-30T04:00:48;12.40;99.90
43842;DHT22;29495;49.970;20.842;2022-09-30T04:03:16;12.40;99.90
43842;DHT22;29495;49.970;20.842;2022-09-30T04:05:42;12.30;99.90
43842;DHT22;29495;49.970;20.842;2022-09-30T04:08:08;12.30;99.90
43842;DHT22;29495;49.970;20.842;2022-09-30T04:10:34;12.40;99.90
43842;DHT22;29495;49.970;20.842;2022-09-30T04:13:00;12.40;99.90
43842;DHT22;29495;49.970;20.842;2022-09-30T04:15:26;12.40;99.90
43842;DHT22;29495;49.970;20.842;2022-09-30T04:17:52;12.40;99.90
43842;DHT22;29495;49.970;20.842;2022-09-30T04:20:18;12.30;99.90
43842;DHT22;29495;49.970;20.842;2022-09-30T04:22:44;12.30;99.90
43842;DHT22;29495;49.970;20.842;2022-09-30T04:25:10;12.20;99.90
43842;DHT22;29495;49.970;20.842;2022-09-30T04:27:37;12.20;99.90
43842;DHT22;29495;49.970;20.842;2022-09-30T04:30:03;12.20;99.90
43842;DHT22;29495;49.970;20.842;2022-09-30T04:32:29;12.20;99.90
43842;DHT22;29495;49.970;20.842;2022-09-30T04:34:55;12.20;99.90
43842;DHT22;29495;49.970;20.842;2022-09-30T04:37:21;12.30;99.90
43842;DHT22;29495;49.970;20.842;2022-09-30T04:39:48;12.30;99.90
43842;DHT22;29495;49.970;20.842;2022-09-30T04:42:14;12.30;99.90
43842;DHT22;29495;49.970;20.842;2022-09-30T04:44:42;12.30;99.90
43842;DHT22;29495;49.970;20.842;2022-09-30T04:47:08;12.40;99.90
43842;DHT22;29495;49.970;20.842;2022-09-30T04:49:34;12.40;99.90
43842;DHT22;29495;49.970;20.842;2022-09-30T04:52:00;12.50;99.90
43842;DHT22;29495;49.970;20.842;2022-09-30T04:54:26;12.60;99.90
43842;DHT22;29495;49.970;20.842;2022-09-30T04:56:52;12.60;99.90
43842;DHT22;29495;49.970;20.842;2022-09-30T04:59:18;12.60;99.90
43842;DHT22;29495;49.970;20.842;2022-09-30T05:01:44;12.70;99.90
43842;DHT22;29495;49.970;20.842;2022-09-30T05:04:11;12.60;99.90
43842;DHT22;29495;49.970;20.842;2022-09-30T05:06:37;12.50;99.90
43842;DHT22;29495;49.970;20.842;2022-09-30T05:09:06;12.60;99.90
43842;DHT22;29495;49.970;20.842;2022-09-30T05:11:32;12.70;99.90
43842;DHT22;29495;49.970;20.842;2022-09-30T05:13:58;12.70;99.90
43842;DHT22;29495;49.970;20.842;2022-09-30T05:16:24;12.60;99.90
43842;DHT22;29495;49.970;20.842;2022-09-30T05:18:53;12.70;99.90
43842;DHT22;29495;49.970;20.842;2022-09-30T05:21:19;12.70;99.90
43842;DHT22;29495;49.970;20.842;2022-09-30T05:23:45;12.70;99.90
43842;DHT22;29495;49.970;20.842;2022-09-30T05:26:12;12.80;99.90
43842;DHT22;29495;49.970;20.842;2022-09-30T05:28:39;12.80;99.90
43842;DHT22;29495;49.970;20.842;2022-09-30T05:31:05;12.60;99.90
43842;DHT22;29495;49.970;20.842;2022-09-30T05:33:32;12.50;99.90
43842;DHT22;29495;49.970;20.842;2022-09-30T05:36:01;12.50;99.90
43842;DHT22;29495;49.970;20.842;2022-09-30T05:38:28;12.50;99.90
43842;DHT22;29495;49.970;20.842;2022-09-30T05:40:54;12.40;99.90
43842;DHT22;29495;49.970;20.842;2022-09-30T05:43:20;12.60;99.90
43842;DHT22;29495;49.970;20.842;2022-09-30T05:45:54;12.70;99.90
43842;DHT22;29495;49.970;20.842;2022-09-30T05:48:21;12.70;99.90
43842;DHT22;29495;49.970;20.842;2022-09-30T05:50:48;12.80;99.90
43842;DHT22;29495;49.970;20.842;2022-09-30T05:53:16;12.70;99.90
43842;DHT22;29495;49.970;20.842;2022-09-30T05:55:46;12.70;99.90
43842;DHT22;29495;49.970;20.842;2022-09-30T05:58:16;12.80;99.90
43842;DHT22;29495;49.970;20.842;2022-09-30T06:00:44;12.80;99.90
43842;DHT22;29495;49.970;20.842;2022-09-30T06:03:10;12.90;99.90
43842;DHT22;29495;49.970;20.842;2022-09-30T06:05:36;12.90;99.90
43842;DHT22;29495;49.970;20.842;2022-09-30T06:08:03;12.90;99.90
43842;DHT22;29495;49.970;20.842;2022-09-30T06:10:29;12.90;99.90
43842;DHT22;29495;49.970;20.842;2022-09-30T06:12:55;12.90;99.90
43842;DHT22;29495;49.970;20.842;2022-09-30T06:15:24;12.90;99.90
43842;DHT22;29495;49.970;20.842;2022-09-30T06:17:53;13.00;99.90
43842;DHT22;29495;49.970;20.842;2022-09-30T06:20:19;13.00;99.90
43842;DHT22;29495;49.970;20.842;2022-09-30T06:22:45;12.80;99.90
43842;DHT22;29495;49.970;20.842;2022-09-30T06:25:11;13.00;99.90
43842;DHT22;29495;49.970;20.842;2022-09-30T06:27:37;13.00;99.90
43842;DHT22;29495;49.970;20.842;2022-09-30T06:30:05;13.00;99.90
43842;DHT22;29495;49.970;20.842;2022-09-30T06:32:31;13.00;99.90
43842;DHT22;29495;49.970;20.842;2022-09-30T06:34:57;13.10;99.90
43842;DHT22;29495;49.970;20.842;2022-09-30T06:37:24;13.20;99.90
43842;DHT22;29495;49.970;20.842;2022-09-30T06:39:50;13.10;99.90
43842;DHT22;29495;49.970;20.842;2022-09-30T06:42:17;13.10;99.90
43842;DHT22;29495;49.970;20.842;2022-09-30T06:44:44;13.20;99.90
43842;DHT22;29495;49.970;20.842;2022-09-30T06:47:12;13.30;99.90
43842;DHT22;29495;49.970;20.842;2022-09-30T06:49:39;13.40;99.90
43842;DHT22;29495;49.970;20.842;2022-09-30T06:52:05;13.40;99.90
43842;DHT22;29495;49.970;20.842;2022-09-30T06:54:31;13.50;99.90
43842;DHT22;29495;49.970;20.842;2022-09-30T06:56:57;13.40;99.90
43842;DHT22;29495;49.970;20.842;2022-09-30T06:59:23;13.50;99.90
43842;DHT22;29495;49.970;20.842;2022-09-30T07:01:49;13.60;99.90
43842;DHT22;29495;49.970;20.842;2022-09-30T07:04:15;13.60;99.90
43842;DHT22;29495;49.970;20.842;2022-09-30T07:06:41;13.70;99.90
43842;DHT22;29495;49.970;20.842;2022-09-30T07:09:08;13.60;99.90
43842;DHT22;29495;49.970;20.842;2022-09-30T07:11:35;13.70;99.90
43842;DHT22;29495;49.970;20.842;2022-09-30T07:14:02;13.60;99.90
43842;DHT22;29495;49.970;20.842;2022-09-30T07:16:29;13.70;99.90
43842;DHT22;29495;49.970;20.842;2022-09-30T07:19:03;13.70;99.90
43842;DHT22;29495;49.970;20.842;2022-09-30T07:21:29;13.70;99.90
43842;DHT22;29495;49.970;20.842;2022-09-30T07:23:56;13.80;99.90
43842;DHT22;29495;49.970;20.842;2022-09-30T07:26:25;13.70;99.90
43842;DHT22;29495;49.970;20.842;2022-09-30T07:28:51;13.70;99.90
43842;DHT22;29495;49.970;20.842;2022-09-30T07:31:21;13.80;99.90
43842;DHT22;29495;49.970;20.842;2022-09-30T07:33:48;13.80;99.90
43842;DHT22;29495;49.970;20.842;2022-09-30T07:36:19;13.70;99.90
43842;DHT22;29495;49.970;20.842;2022-09-30T07:38:48;13.70;99.90
43842;DHT22;29495;49.970;20.842;2022-09-30T07:41:17;13.70;99.90
43842;DHT22;29495;49.970;20.842;2022-09-30T07:43:44;13.80;99.90
43842;DHT22;29495;49.970;20.842;2022-09-30T07:46:19;13.80;99.90
43842;DHT22;29495;49.970;20.842;2022-09-30T07:48:47;13.70;99.90
43842;DHT22;29495;49.970;20.842;2022-09-30T07:51:27;13.80;99.90
43842;DHT22;29495;49.970;20.842;2022-09-30T07:53:57;13.90;99.90
43842;DHT22;29495;49.970;20.842;2022-09-30T07:56:25;13.70;99.90
43842;DHT22;29495;49.970;20.842;2022-09-30T07:58:56;13.90;99.90
43842;DHT22;29495;49.970;20.842;2022-09-30T08:01:29;13.90;99.90
43842;DHT22;29495;49.970;20.842;2022-09-30T08:03:59;14.00;99.90
43842;DHT22;29495;49.970;20.842;2022-09-30T08:06:28;14.10;99.90
43842;DHT22;29495;49.970;20.842;2022-09-30T08:08:55;14.10;99.90
43842;DHT22;29495;49.970;20.842;2022-09-30T08:11:22;14.10;99.90
43842;DHT22;29495;49.970;20.842;2022-09-30T08:13:50;14.10;99.90
43842;DHT22;29495;49.970;20.842;2022-09-30T08:16:18;14.20;99.90
43842;DHT22;29495;49.970;20.842;2022-09-30T08:18:44;14.20;99.90
43842;DHT22;29495;49.970;20.842;2022-09-30T08:21:10;14.10;99.90
43842;DHT22;29495;49.970;20.842;2022-09-30T08:23:36;14.40;99.90
43842;DHT22;29495;49.970;20.842;2022-09-30T08:26:17;14.50;99.90
43842;DHT22;29495;49.970;20.842;2022-09-30T08:28:44;14.30;99.90
43842;DHT22;29495;49.970;20.842;2022-09-30T08:31:16;14.50;99.90
43842;DHT22;29495;49.970;20.842;2022-09-30T08:33:42;14.50;99.90
43842;DHT22;29495;49.970;20.842;2022-09-30T08:36:12;14.60;99.90
43842;DHT22;29495;49.970;20.842;2022-09-30T08:38:41;14.80;99.90
43842;DHT22;29495;49.970;20.842;2022-09-30T08:44:17;14.80;99.90
43842;DHT22;29495;49.970;20.842;2022-09-30T08:46:56;14.90;99.90
43842;DHT22;29495;49.970;20.842;2022-09-30T08:51:58;14.90;99.90
43842;DHT22;29495;49.970;20.842;2022-09-30T08:54:31;14.80;99.90
43842;DHT22;29495;49.970;20.842;2022-09-30T08:57:00;14.70;99.90
43842;DHT22;29495;49.970;20.842;2022-09-30T08:59:49;14.90;99.90
43842;DHT22;29495;49.970;20.842;2022-09-30T09:02:35;14.90;99.90
43842;DHT22;29495;49.970;20.842;2022-09-30T09:05:16;14.80;99.90
43842;DHT22;29495;49.970;20.842;2022-09-30T09:11:15;15.00;99.90
43842;DHT22;29495;49.970;20.842;2022-09-30T09:16:38;15.10;99.90
43842;DHT22;29495;49.970;20.842;2022-09-30T09:19:19;15.20;99.90
43842;DHT22;29495;49.970;20.842;2022-09-30T09:21:58;15.20;99.90
43842;DHT22;29495;49.970;20.842;2022-09-30T09:24:29;15.20;99.90
43842;DHT22;29495;49.970;20.842;2022-09-30T09:26:57;15.30;99.90
43842;DHT22;29495;49.970;20.842;2022-09-30T09:32:17;15.20;99.90
43842;DHT22;29495;49.970;20.842;2022-09-30T09:34:44;15.30;99.90
43842;DHT22;29495;49.970;20.842;2022-09-30T09:40:57;15.20;99.90
43842;DHT22;29495;49.970;20.842;2022-09-30T09:45:52;15.40;99.90
43842;DHT22;29495;49.970;20.842;2022-09-30T09:48:21;15.30;99.90
43842;DHT22;29495;49.970;20.842;2022-09-30T09:51:11;15.10;99.90
43842;DHT22;29495;49.970;20.842;2022-09-30T09:53:47;15.00;99.90
43842;DHT22;29495;49.970;20.842;2022-09-30T09:56:17;15.10;99.90
43842;DHT22;29495;49.970;20.842;2022-09-30T09:59:05;15.10;99.90
43842;DHT22;29495;49.970;20.842;2022-09-30T10:01:33;15.20;99.90
43842;DHT22;29495;49.970;20.842;2022-09-30T10:04:24;15.30;99.90
43842;DHT22;29495;49.970;20.842;2022-09-30T10:06:55;15.40;99.90
43842;DHT22;29495;49.970;20.842;2022-09-30T10:14:40;15.20;99.90
43842;DHT22;29495;49.970;20.842;2022-09-30T10:17:19;15.20;99.90
43842;DHT22;29495;49.970;20.842;2022-09-30T10:19:52;15.10;99.90
43842;DHT22;29495;49.970;20.842;2022-09-30T10:22:27;15.20;99.90
43842;DHT22;29495;49.970;20.842;2022-09-30T10:30:12;15.20;99.90
43842;DHT22;29495;49.970;20.842;2022-09-30T10:32:38;15.30;99.90
43842;DHT22;29495;49.970;20.842;2022-09-30T10:35:17;15.30;99.90
43842;DHT22;29495;49.970;20.842;2022-09-30T10:37:51;15.30;99.90
43842;DHT22;29495;49.970;20.842;2022-09-30T10:40:18;15.40;99.90
43842;DHT22;29495;49.970;20.842;2022-09-30T10:42:47;15.20;99.90
43842;DHT22;29495;49.970;20.842;2022-09-30T10:45:22;15.10;99.90
43842;DHT22;29495;49.970;20.842;2022-09-30T10:47:52;15.20;99.90
43842;DHT22;29495;49.970;20.842;2022-09-30T10:50:24;15.10;99.90
43842;DHT22;29495;49.970;20.842;2022-09-30T10:53:02;15.10;99.90
43842;DHT22;29495;49.970;20.842;2022-09-30T10:55:34;15.00;99.90
43842;DHT22;29495;49.970;20.842;2022-09-30T11:06:31;15.10;99.90
43842;DHT22;29495;49.970;20.842;2022-09-30T11:11:54;15.10;99.90
43842;DHT22;29495;49.970;20.842;2022-09-30T11:14:46;15.00;99.90
43842;DHT22;29495;49.970;20.842;2022-09-30T11:17:31;15.20;99.90
43842;DHT22;29495;49.970;20.842;2022-09-30T11:22:59;15.00;99.90
43842;DHT22;29495;49.970;20.842;2022-09-30T11:58:17;15.20;99.90
43842;DHT22;29495;49.970;20.842;2022-09-30T12:00:18;15.30;99.90
43842;DHT22;29495;49.970;20.842;2022-09-30T12:02:50;15.30;99.90
43842;DHT22;29495;49.970;20.842;2022-09-30T12:05:23;15.20;99.90
43842;DHT22;29495;49.970;20.842;2022-09-30T12:08:18;15.20;99.90
43842;DHT22;29495;49.970;20.842;2022-09-30T12:10:52;15.20;99.90
43842;DHT22;29495;49.970;20.842;2022-09-30T12:13:23;15.10;99.90
43842;DHT22;29495;49.970;20.842;2022-09-30T12:15:52;15.10;99.90
43842;DHT22;29495;49.970;20.842;2022-09-30T12:18:23;15.30;99.90
43842;DHT22;29495;49.970;20.842;2022-09-30T12:20:57;15.30;99.90
43842;DHT22;29495;49.970;20.842;2022-09-30T12:23:48;15.30;99.90
43842;DHT22;29495;49.970;20.842;2022-09-30T12:26:16;15.50;99.90
43842;DHT22;29495;49.970;20.842;2022-09-30T12:31:58;15.20;99.90
43842;DHT22;29495;49.970;20.842;2022-09-30T12:37:38;15.30;99.90
43842;DHT22;29495;49.970;20.842;2022-09-30T12:43:35;15.40;99.90
43842;DHT22;29495;49.970;20.842;2022-09-30T12:49:03;15.30;99.90
43842;DHT22;29495;49.970;20.842;2022-09-30T12:51:41;15.50;99.90
43842;DHT22;29495;49.970;20.842;2022-09-30T12:54:47;15.50;99.90
43842;DHT22;29495;49.970;20.842;2022-09-30T12:57:17;15.40;99.90
43842;DHT22;29495;49.970;20.842;2022-09-30T12:59:52;15.50;99.90
43842;DHT22;29495;49.970;20.842;2022-09-30T13:02:37;15.60;99.90
43842;DHT22;29495;49.970;20.842;2022-09-30T13:10:33;15.60;99.90
43842;DHT22;29495;49.970;20.842;2022-09-30T13:15:42;15.60;99.90
43842;DHT22;29495;49.970;20.842;2022-09-30T13:23:41;15.10;99.90
43842;DHT22;29495;49.970;20.842;2022-09-30T13:28:50;14.90;99.90
43842;DHT22;29495;49.970;20.842;2022-09-30T13:31:17;15.00;99.90
43842;DHT22;29495;49.970;20.842;2022-09-30T13:39:30;14.80;99.90
43842;DHT22;29495;49.970;20.842;2022-09-30T13:42:21;14.80;99.90
43842;DHT22;29495;49.970;20.842;2022-09-30T13:47:42;14.40;99.90
43842;DHT22;29495;49.970;20.842;2022-09-30T13:50:36;14.30;99.90
43842;DHT22;29495;49.970;20.842;2022-09-30T13:53:05;14.30;99.90
43842;DHT22;29495;49.970;20.842;2022-09-30T13:55:41;14.20;99.90
43842;DHT22;29495;49.970;20.842;2022-09-30T14:00:50;14.00;99.90
43842;DHT22;29495;49.970;20.842;2022-09-30T14:06:13;14.10;99.90
43842;DHT22;29495;49.970;20.842;2022-09-30T14:11:58;14.10;99.90
43842;DHT22;29495;49.970;20.842;2022-09-30T14:22:55;14.50;99.90
43842;DHT22;29495;49.970;20.842;2022-09-30T14:25:21;14.70;99.90
43842;DHT22;29495;49.970;20.842;2022-09-30T14:28:01;14.80;99.90
43842;DHT22;29495;49.970;20.842;2022-09-30T14:30:49;14.80;99.90
43842;DHT22;29495;49.970;20.842;2022-09-30T14:33:33;14.80;99.90
43842;DHT22;29495;49.970;20.842;2022-09-30T14:36:28;14.80;99.90
43842;DHT22;29495;49.970;20.842;2022-09-30T14:38:59;14.80;99.90
43842;DHT22;29495;49.970;20.842;2022-09-30T14:41:26;14.90;99.90
43842;DHT22;29495;49.970;20.842;2022-09-30T14:43:58;14.90;99.90
43842;DHT22;29495;49.970;20.842;2022-09-30T14:46:36;14.90;99.90
43842;DHT22;29495;49.970;20.842;2022-09-30T14:49:07;14.90;99.90
43842;DHT22;29495;49.970;20.842;2022-09-30T14:51:37;14.90;99.90
43842;DHT22;29495;49.970;20.842;2022-09-30T14:54:21;14.80;99.90
43842;DHT22;29495;49.970;20.842;2022-09-30T14:56:49;14.60;99.90
43842;DHT22;29495;49.970;20.842;2022-09-30T14:59:29;14.60;99.90
43842;DHT22;29495;49.970;20.842;2022-09-30T15:02:09;14.60;99.90
43842;DHT22;29495;49.970;20.842;2022-09-30T15:04:39;14.50;99.90
43842;DHT22;29495;49.970;20.842;2022-09-30T15:07:11;14.50;99.90
43842;DHT22;29495;49.970;20.842;2022-09-30T15:09:40;14.40;99.90
43842;DHT22;29495;49.970;20.842;2022-09-30T15:12:19;14.40;99.90
43842;DHT22;29495;49.970;20.842;2022-09-30T15:14:48;14.30;99.90
43842;DHT22;29495;49.970;20.842;2022-09-30T15:17:28;14.20;99.90
43842;DHT22;29495;49.970;20.842;2022-09-30T15:19:56;14.10;99.90
43842;DHT22;29495;49.970;20.842;2022-09-30T15:22:29;14.10;99.90
43842;DHT22;29495;49.970;20.842;2022-09-30T15:25:02;14.00;99.90
43842;DHT22;29495;49.970;20.842;2022-09-30T15:27:30;14.00;99.90
43842;DHT22;29495;49.970;20.842;2022-09-30T15:30:27;13.90;99.90
43842;DHT22;29495;49.970;20.842;2022-09-30T15:32:59;13.90;99.90
43842;DHT22;29495;49.970;20.842;2022-09-30T15:35:30;13.80;99.90
43842;DHT22;29495;49.970;20.842;2022-09-30T15:38:27;13.90;99.90
43842;DHT22;29495;49.970;20.842;2022-09-30T15:40:59;13.90;99.90
43842;DHT22;29495;49.970;20.842;2022-09-30T15:43:42;13.90;99.90
43842;DHT22;29495;49.970;20.842;2022-09-30T15:46:29;13.90;99.90
43842;DHT22;29495;49.970;20.842;2022-09-30T15:49:29;13.90;99.90
43842;DHT22;29495;49.970;20.842;2022-09-30T15:52:26;13.90;99.90
43842;DHT22;29495;49.970;20.842;2022-09-30T15:54:57;13.90;99.90
43842;DHT22;29495;49.970;20.842;2022-09-30T15:57:46;14.00;99.90
43842;DHT22;29495;49.970;20.842;2022-09-30T16:00:34;14.00;99.90
43842;DHT22;29495;49.970;20.842;2022-09-30T16:05:42;14.00;99.90
43842;DHT22;29495;49.970;20.842;2022-09-30T16:08:09;14.00;99.90
43842;DHT22;29495;49.970;20.842;2022-09-30T16:10:35;14.00;99.90
43842;DHT22;29495;49.970;20.842;2022-09-30T16:13:03;14.10;99.90
43842;DHT22;29495;49.970;20.842;2022-09-30T16:15:29;14.10;99.90
43842;DHT22;29495;49.970;20.842;2022-09-30T16:17:56;14.00;99.90
43842;DHT22;29495;49.970;20.842;2022-09-30T16:20:24;14.00;99.90
43842;DHT22;29495;49.970;20.842;2022-09-30T16:22:54;13.90;99.90
43842;DHT22;29495;49.970;20.842;2022-09-30T16:25:28;13.80;99.90
43842;DHT22;29495;49.970;20.842;2022-09-30T16:28:15;13.80;99.90
43842;DHT22;29495;49.970;20.842;2022-09-30T16:30:47;13.70;99.90
43842;DHT22;29495;49.970;20.842;2022-09-30T16:33:14;13.70;99.90
43842;DHT22;29495;49.970;20.842;2022-09-30T16:35:44;13.70;99.90
43842;DHT22;29495;49.970;20.842;2022-09-30T16:38:13;13.60;99.90
43842;DHT22;29495;49.970;20.842;2022-09-30T16:40:40;13.60;99.90
43842;DHT22;29495;49.970;20.842;2022-09-30T16:43:07;13.60;99.90
43842;DHT22;29495;49.970;20.842;2022-09-30T16:45:43;13.60;99.90
43842;DHT22;29495;49.970;20.842;2022-09-30T16:48:18;13.50;99.90
43842;DHT22;29495;49.970;20.842;2022-09-30T16:51:05;13.50;99.90
43842;DHT22;29495;49.970;20.842;2022-09-30T16:53:33;13.60;99.90
43842;DHT22;29495;49.970;20.842;2022-09-30T16:55:59;13.50;99.90
43842;DHT22;29495;49.970;20.842;2022-09-30T16:58:28;13.40;99.90
43842;DHT22;29495;49.970;20.842;2022-09-30T17:00:56;13.50;99.90
43842;DHT22;29495;49.970;20.842;2022-09-30T17:03:25;13.50;99.90
43842;DHT22;29495;49.970;20.842;2022-09-30T17:05:51;13.60;99.90
43842;DHT22;29495;49.970;20.842;2022-09-30T17:08:19;13.50;99.90
43842;DHT22;29495;49.970;20.842;2022-09-30T17:10:46;13.60;99.90
43842;DHT22;29495;49.970;20.842;2022-09-30T17:13:16;13.60;99.90
43842;DHT22;29495;49.970;20.842;2022-09-30T17:15:48;13.60;99.90
43842;DHT22;29495;49.970;20.842;2022-09-30T17:18:16;13.70;99.90
43842;DHT22;29495;49.970;20.842;2022-09-30T17:20:44;13.80;99.90
43842;DHT22;29495;49.970;20.842;2022-09-30T17:23:23;13.80;99.90
43842;DHT22;29495;49.970;20.842;2022-09-30T17:25:50;13.80;99.90
43842;DHT22;29495;49.970;20.842;2022-09-30T17:28:17;13.80;99.90
43842;DHT22;29495;49.970;20.842;2022-09-30T17:30:49;13.80;99.90
43842;DHT22;29495;49.970;20.842;2022-09-30T17:41:46;13.80;99.90
43842;DHT22;29495;49.970;20.842;2022-09-30T17:50:09;13.60;99.90
43842;DHT22;29495;49.970;20.842;2022-09-30T17:58:00;13.70;99.90
43842;DHT22;29495;49.970;20.842;2022-09-30T18:02:23;13.60;99.90
43842;DHT22;29495;49.970;20.842;2022-09-30T18:05:54;13.70;99.90
43842;DHT22;29495;49.970;20.842;2022-09-30T18:17:16;13.60;99.90
43842;DHT22;29495;49.970;20.842;2022-09-30T18:19:43;13.60;99.90
43842;DHT22;29495;49.970;20.842;2022-09-30T18:22:10;13.60;99.90
43842;DHT22;29495;49.970;20.842;2022-09-30T18:24:36;13.60;99.90
43842;DHT22;29495;49.970;20.842;2022-09-30T18:27:21;13.60;99.90
43842;DHT22;29495;49.970;20.842;2022-09-30T18:29:50;13.70;99.90
43842;DHT22;29495;49.970;20.842;2022-09-30T18:32:18;13.70;99.90
43842;DHT22;29495;49.970;20.842;2022-09-30T18:34:44;13.70;99.90
43842;DHT22;29495;49.970;20.842;2022-09-30T18:37:11;13.80;99.90
43842;DHT22;29495;49.970;20.842;2022-09-30T18:39:39;13.80;99.90
43842;DHT22;29495;49.970;20.842;2022-09-30T18:42:06;13.80;99.90
43842;DHT22;29495;49.970;20.842;2022-09-30T18:44:32;13.70;99.90
43842;DHT22;29495;49.970;20.842;2022-09-30T18:47:03;13.80;99.90
43842;DHT22;29495;49.970;20.842;2022-09-30T18:49:31;13.80;99.90
43842;DHT22;29495;49.970;20.842;2022-09-30T18:51:58;13.80;99.90
43842;DHT22;29495;49.970;20.842;2022-09-30T18:54:30;13.70;99.90
43842;DHT22;29495;49.970;20.842;2022-09-30T18:56:58;13.70;99.90
43842;DHT22;29495;49.970;20.842;2022-09-30T18:59:25;13.70;99.90
43842;DHT22;29495;49.970;20.842;2022-09-30T19:01:52;13.70;99.90
43842;DHT22;29495;49.970;20.842;2022-09-30T19:04:28;13.80;99.90
43842;DHT22;29495;49.970;20.842;2022-09-30T19:07:03;13.80;99.90
43842;DHT22;29495;49.970;20.842;2022-09-30T19:09:38;13.70;99.90
43842;DHT22;29495;49.970;20.842;2022-09-30T19:12:39;13.70;99.90
43842;DHT22;29495;49.970;20.842;2022-09-30T19:15:12;13.80;99.90
43842;DHT22;29495;49.970;20.842;2022-09-30T19:17:44;13.80;99.90
43842;DHT22;29495;49.970;20.842;2022-09-30T19:20:11;13.90;99.90
43842;DHT22;29495;49.970;20.842;2022-09-30T19:22:45;13.80;99.90
43842;DHT22;29495;49.970;20.842;2022-09-30T19:25:22;13.80;99.90
43842;DHT22;29495;49.970;20.842;2022-09-30T19:27:48;13.90;99.90
43842;DHT22;29495;49.970;20.842;2022-09-30T19:30:16;13.90;99.90
43842;DHT22;29495;49.970;20.842;2022-09-30T19:32:44;13.80;99.90
43842;DHT22;29495;49.970;20.842;2022-09-30T19:35:10;13.80;99.90
43842;DHT22;29495;49.970;20.842;2022-09-30T19:37:38;13.90;99.90